sensor_id;sensor_type;location;lat;lon;timestamp;temperature;humidity
8463;DHT22;4268;52.506;13.462;2022-11-25T00:00:06;3.80;99.90
8463;DHT22;4268;52.506;13.462;2022-11-25T00:02:31;3.70;99.90
8463;DHT22;4268;52.506;13.462;2022-11-25T00:04:57;3.80;99.90
8463;DHT22;4268;52.506;13.462;2022-11-25T00:07:23;3.80;99.90
8463;DHT22;4268;52.506;13.462;2022-11-25T00:09:49;3.90;99.90
8463;DHT22;4268;52.506;13.462;2022-11-25T00:12:14;3.80;99.90
8463;DHT22;4268;52.506;13.462;2022-11-25T00:14:40;3.90;99.90
8463;DHT22;4268;52.506;13.462;2022-11-25T00:17:05;3.90;99.90
8463;DHT22;4268;52.506;13.462;2022-11-25T00:19:30;3.90;99.90
8463;DHT22;4268;52.506;13.462;2022-11-25T00:21:56;3.90;99.90
8463;DHT22;4268;52.506;13.462;2022-11-25T00:24:21;3.90;99.90
8463;DHT22;4268;52.506;13.462;2022-11-25T00:26:47;3.90;99.90
8463;DHT22;4268;52.506;13.462;2022-11-25T00:29:13;3.90;99.90
8463;DHT22;4268;52.506;13.462;2022-11-25T00:31:39;3.90;99.90
8463;DHT22;4268;52.506;13.462;2022-11-25T00:34:05;3.90;99.90
8463;DHT22;4268;52.506;13.462;2022-11-25T00:36:35;3.90;99.90
8463;DHT22;4268;52.506;13.462;2022-11-25T00:39:04;3.90;99.90
8463;DHT22;4268;52.506;13.462;2022-11-25T00:41:30;3.90;99.90
8463;DHT22;4268;52.506;13.462;2022-11-25T00:44:17;3.90;99.90
8463;DHT22;4268;52.506;13.462;2022-11-25T00:47:08;3.90;99.90
8463;DHT22;4268;52.506;13.462;2022-11-25T00:49:35;3.90;99.90
8463;DHT22;4268;52.506;13.462;2022-11-25T00:52:01;3.90;99.90
8463;DHT22;4268;52.506;13.462;2022-11-25T00:54:27;3.90;99.90
8463;DHT22;4268;52.506;13.462;2022-11-25T00:56:52;3.90;99.90
8463;DHT22;4268;52.506;13.462;2022-11-25T00:59:18;4.00;99.90
8463;DHT22;4268;52.506;13.462;2022-11-25T01:01:44;4.00;99.90
8463;DHT22;4268;52.506;13.462;2022-11-25T01:04:09;4.00;99.90
8463;DHT22;4268;52.506;13.462;2022-11-25T01:06:36;4.00;99.90
8463;DHT22;4268;52.506;13.462;2022-11-25T01:09:03;4.00;99.90
8463;DHT22;4268;52.506;13.462;2022-11-25T01:11:29;4.00;99.90
8463;DHT22;4268;52.506;13.462;2022-11-25T01:13:55;4.00;99.90
8463;DHT22;4268;52.506;13.462;2022-11-25T01:16:21;4.00;99.90
8463;DHT22;4268;52.506;13.462;2022-11-25T01:18:47;4.00;99.90
8463;DHT22;4268;52.506;13.462;2022-11-25T01:21:18;4.00;99.90
8463;DHT22;4268;52.506;13.462;2022-11-25T01:23:44;4.00;99.90
8463;DHT22;4268;52.506;13.462;2022-11-25T01:26:12;4.00;99.90
8463;DHT22;4268;52.506;13.462;2022-11-25T01:28:39;4.00;99.90
8463;DHT22;4268;52.506;13.462;2022-11-25T01:31:08;4.00;99.90
8463;DHT22;4268;52.506;13.462;2022-11-25T01:33:35;4.00;99.90
8463;DHT22;4268;52.506;13.462;2022-11-25T01:36:05;4.00;99.90
8463;DHT22;4268;52.506;13.462;2022-11-25T01:38:31;4.00;99.90
8463;DHT22;4268;52.506;13.462;2022-11-25T01:40:57;4.00;99.90
8463;DHT22;4268;52.506;13.462;2022-11-25T01:43:24;4.00;99.90
8463;DHT22;4268;52.506;13.462;2022-11-25T01:45:50;4.00;99.90
8463;DHT22;4268;52.506;13.462;2022-11-25T01:48:26;4.00;99.90
8463;DHT22;4268;52.506;13.462;2022-11-25T01:50:53;4.10;99.90
8463;DHT22;4268;52.506;13.462;2022-11-25T01:53:20;4.00;99.90
8463;DHT22;4268;52.506;13.462;2022-11-25T01:55:53;4.10;99.90
8463;DHT22;4268;52.506;13.462;2022-11-25T01:58:29;4.10;99.90
8463;DHT22;4268;52.506;13.462;2022-11-25T02:00:56;4.10;99.90
8463;DHT22;4268;52.506;13.462;2022-11-25T02:03:27;4.10;99.90
8463;DHT22;4268;52.506;13.462;2022-11-25T02:06:24;4.10;99.90
8463;DHT22;4268;52.506;13.462;2022-11-25T02:08:52;4.00;99.90
8463;DHT22;4268;52.506;13.462;2022-11-25T02:11:20;4.10;99.90
8463;DHT22;4268;52.506;13.462;2022-11-25T02:13:49;4.10;99.90
8463;DHT22;4268;52.506;13.462;2022-11-25T02:16:15;4.10;99.90
8463;DHT22;4268;52.506;13.462;2022-11-25T02:18:41;4.10;99.90
8463;DHT22;4268;52.506;13.462;2022-11-25T02:21:06;4.10;99.90
8463;DHT22;4268;52.506;13.462;2022-11-25T02:24:03;4.10;99.90
8463;DHT22;4268;52.506;13.462;2022-11-25T02:26:32;4.20;99.90
8463;DHT22;4268;52.506;13.462;2022-11-25T02:28:57;4.20;99.90
8463;DHT22;4268;52.506;13.462;2022-11-25T02:31:23;4.20;99.90
8463;DHT22;4268;52.506;13.462;2022-11-25T02:33:49;4.20;99.90
8463;DHT22;4268;52.506;13.462;2022-11-25T02:36:20;4.20;99.90
8463;DHT22;4268;52.506;13.462;2022-11-25T02:38:49;4.20;99.90
8463;DHT22;4268;52.506;13.462;2022-11-25T02:41:29;4.20;99.90
8463;DHT22;4268;52.506;13.462;2022-11-25T02:43:56;4.20;99.90
8463;DHT22;4268;52.506;13.462;2022-11-25T02:46:23;4.20;99.90
8463;DHT22;4268;52.506;13.462;2022-11-25T02:48:50;4.20;99.90
8463;DHT22;4268;52.506;13.462;2022-11-25T02:51:18;4.20;99.90
8463;DHT22;4268;52.506;13.462;2022-11-25T02:53:44;4.20;99.90
8463;DHT22;4268;52.506;13.462;2022-11-25T02:56:12;4.20;99.90
8463;DHT22;4268;52.506;13.462;2022-11-25T02:58:38;4.20;99.90
8463;DHT22;4268;52.506;13.462;2022-11-25T03:01:04;4.30;99.90
8463;DHT22;4268;52.506;13.462;2022-11-25T03:03:29;4.20;99.90
8463;DHT22;4268;52.506;13.462;2022-11-25T03:05:55;4.30;99.90
8463;DHT22;4268;52.506;13.462;2022-11-25T03:08:20;4.30;99.90
8463;DHT22;4268;52.506;13.462;2022-11-25T03:10:46;4.30;99.90
8463;DHT22;4268;52.506;13.462;2022-11-25T03:13:11;4.30;99.90
8463;DHT22;4268;52.506;13.462;2022-11-25T03:15:37;4.20;99.90
8463;DHT22;4268;52.506;13.462;2022-11-25T03:18:04;4.30;99.90
8463;DHT22;4268;52.506;13.462;2022-11-25T03:20:30;4.30;99.90
8463;DHT22;4268;52.506;13.462;2022-11-25T03:22:55;4.30;99.90
8463;DHT22;4268;52.506;13.462;2022-11-25T03:25:21;4.20;99.90
8463;DHT22;4268;52.506;13.462;2022-11-25T03:27:46;4.30;99.90
8463;DHT22;4268;52.506;13.462;2022-11-25T03:30:16;4.30;99.90
8463;DHT22;4268;52.506;13.462;2022-11-25T03:32:42;4.30;99.90
8463;DHT22;4268;52.506;13.462;2022-11-25T03:35:08;4.30;99.90
8463;DHT22;4268;52.506;13.462;2022-11-25T03:37:34;4.30;99.90
8463;DHT22;4268;52.506;13.462;2022-11-25T03:39:59;4.30;99.90
8463;DHT22;4268;52.506;13.462;2022-11-25T03:42:25;4.30;99.90
8463;DHT22;4268;52.506;13.462;2022-11-25T03:44:50;4.30;99.90
8463;DHT22;4268;52.506;13.462;2022-11-25T03:47:16;4.30;99.90
8463;DHT22;4268;52.506;13.462;2022-11-25T03:49:41;4.20;99.90
8463;DHT22;4268;52.506;13.462;2022-11-25T03:52:07;4.30;99.90
8463;DHT22;4268;52.506;13.462;2022-11-25T03:54:32;4.30;99.90
8463;DHT22;4268;52.506;13.462;2022-11-25T03:56:58;4.40;99.90
8463;DHT22;4268;52.506;13.462;2022-11-25T03:59:23;4.30;99.90
8463;DHT22;4268;52.506;13.462;2022-11-25T04:01:49;4.30;99.90
8463;DHT22;4268;52.506;13.462;2022-11-25T04:04:14;4.30;99.90
8463;DHT22;4268;52.506;13.462;2022-11-25T04:06:40;4.30;99.90
8463;DHT22;4268;52.506;13.462;2022-11-25T04:09:07;4.30;99.90
8463;DHT22;4268;52.506;13.462;2022-11-25T04:11:32;4.20;99.90
8463;DHT22;4268;52.506;13.462;2022-11-25T04:14:17;4.30;99.90
8463;DHT22;4268;52.506;13.462;2022-11-25T04:16:42;4.30;99.90
8463;DHT22;4268;52.506;13.462;2022-11-25T04:19:08;4.30;99.90
8463;DHT22;4268;52.506;13.462;2022-11-25T04:21:33;4.30;99.90
8463;DHT22;4268;52.506;13.462;2022-11-25T04:23:59;4.30;99.90
8463;DHT22;4268;52.506;13.462;2022-11-25T04:26:25;4.30;99.90
8463;DHT22;4268;52.506;13.462;2022-11-25T04:28:50;4.30;99.90
8463;DHT22;4268;52.506;13.462;2022-11-25T04:31:15;4.30;99.90
8463;DHT22;4268;52.506;13.462;2022-11-25T04:33:41;4.30;99.90
8463;DHT22;4268;52.506;13.462;2022-11-25T04:36:07;4.40;99.90
8463;DHT22;4268;52.506;13.462;2022-11-25T04:38:32;4.40;99.90
8463;DHT22;4268;52.506;13.462;2022-11-25T04:40:58;4.40;99.90
8463;DHT22;4268;52.506;13.462;2022-11-25T04:43:23;4.40;99.90
8463;DHT22;4268;52.506;13.462;2022-11-25T04:45:49;4.40;99.90
8463;DHT22;4268;52.506;13.462;2022-11-25T04:48:15;4.40;99.90
8463;DHT22;4268;52.506;13.462;2022-11-25T04:50:40;4.40;99.90
8463;DHT22;4268;52.506;13.462;2022-11-25T04:53:06;4.40;99.90
8463;DHT22;4268;52.506;13.462;2022-11-25T04:55:31;4.40;99.90
8463;DHT22;4268;52.506;13.462;2022-11-25T04:57:57;4.40;99.90
8463;DHT22;4268;52.506;13.462;2022-11-25T05:00:22;4.50;99.90
8463;DHT22;4268;52.506;13.462;2022-11-25T05:02:48;4.40;99.90
8463;DHT22;4268;52.506;13.462;2022-11-25T05:05:14;4.40;99.90
8463;DHT22;4268;52.506;13.462;2022-11-25T05:07:39;4.50;99.90
8463;DHT22;4268;52.506;13.462;2022-11-25T05:10:05;4.50;99.90
8463;DHT22;4268;52.506;13.462;2022-11-25T05:12:31;4.50;99.90
8463;DHT22;4268;52.506;13.462;2022-11-25T05:14:57;4.50;99.90
8463;DHT22;4268;52.506;13.462;2022-11-25T05:17:25;4.50;99.90
8463;DHT22;4268;52.506;13.462;2022-11-25T05:19:51;4.50;99.90
8463;DHT22;4268;52.506;13.462;2022-11-25T05:22:19;4.50;99.90
8463;DHT22;4268;52.506;13.462;2022-11-25T05:24:45;4.50;99.90
8463;DHT22;4268;52.506;13.462;2022-11-25T05:27:11;4.50;99.90
8463;DHT22;4268;52.506;13.462;2022-11-25T05:29:37;4.50;99.90
8463;DHT22;4268;52.506;13.462;2022-11-25T05:32:03;4.50;99.90
8463;DHT22;4268;52.506;13.462;2022-11-25T05:34:29;4.50;99.90
8463;DHT22;4268;52.506;13.462;2022-11-25T05:36:54;4.60;99.90
8463;DHT22;4268;52.506;13.462;2022-11-25T05:39:20;4.60;99.90
8463;DHT22;4268;52.506;13.462;2022-11-25T05:41:45;4.50;99.90
8463;DHT22;4268;52.506;13.462;2022-11-25T05:44:11;4.60;99.90
8463;DHT22;4268;52.506;13.462;2022-11-25T05:46:36;4.60;99.90
8463;DHT22;4268;52.506;13.462;2022-11-25T05:49:02;4.70;99.90
8463;DHT22;4268;52.506;13.462;2022-11-25T05:51:28;4.60;99.90
8463;DHT22;4268;52.506;13.462;2022-11-25T05:53:54;4.60;99.90
8463;DHT22;4268;52.506;13.462;2022-11-25T05:56:20;4.70;99.90
8463;DHT22;4268;52.506;13.462;2022-11-25T05:58:46;4.60;99.90
8463;DHT22;4268;52.506;13.462;2022-11-25T06:01:13;4.60;99.90
8463;DHT22;4268;52.506;13.462;2022-11-25T06:03:40;4.50;99.90
8463;DHT22;4268;52.506;13.462;2022-11-25T06:06:06;4.60;99.90
8463;DHT22;4268;52.506;13.462;2022-11-25T06:08:33;4.60;99.90
8463;DHT22;4268;52.506;13.462;2022-11-25T06:11:02;4.60;99.90
8463;DHT22;4268;52.506;13.462;2022-11-25T06:13:28;4.60;99.90
8463;DHT22;4268;52.506;13.462;2022-11-25T06:15:53;4.60;99.90
8463;DHT22;4268;52.506;13.462;2022-11-25T06:18:19;4.70;99.90
8463;DHT22;4268;52.506;13.462;2022-11-25T06:20:44;4.70;99.90
8463;DHT22;4268;52.506;13.462;2022-11-25T06:23:10;4.70;99.90
8463;DHT22;4268;52.506;13.462;2022-11-25T06:25:36;4.70;99.90
8463;DHT22;4268;52.506;13.462;2022-11-25T06:28:02;4.70;99.90
8463;DHT22;4268;52.506;13.462;2022-11-25T06:30:28;4.70;99.90
8463;DHT22;4268;52.506;13.462;2022-11-25T06:32:54;4.60;99.90
8463;DHT22;4268;52.506;13.462;2022-11-25T06:35:20;4.60;99.90
8463;DHT22;4268;52.506;13.462;2022-11-25T06:37:46;4.50;99.90
8463;DHT22;4268;52.506;13.462;2022-11-25T06:40:12;4.60;99.90
8463;DHT22;4268;52.506;13.462;2022-11-25T06:42:38;4.50;99.90
8463;DHT22;4268;52.506;13.462;2022-11-25T06:45:05;4.50;99.90
8463;DHT22;4268;52.506;13.462;2022-11-25T06:47:31;4.50;99.90
8463;DHT22;4268;52.506;13.462;2022-11-25T06:49:56;4.50;99.90
8463;DHT22;4268;52.506;13.462;2022-11-25T06:52:22;4.50;99.90
8463;DHT22;4268;52.506;13.462;2022-11-25T06:54:47;4.40;99.90
8463;DHT22;4268;52.506;13.462;2022-11-25T06:57:16;4.40;99.90
8463;DHT22;4268;52.506;13.462;2022-11-25T06:59:42;4.40;99.90
8463;DHT22;4268;52.506;13.462;2022-11-25T07:02:10;4.40;99.90
8463;DHT22;4268;52.506;13.462;2022-11-25T07:04:35;4.40;99.90
8463;DHT22;4268;52.506;13.462;2022-11-25T07:07:01;3.80;99.90
8463;DHT22;4268;52.506;13.462;2022-11-25T07:09:26;4.40;99.90
8463;DHT22;4268;52.506;13.462;2022-11-25T07:11:52;4.40;99.90
8463;DHT22;4268;52.506;13.462;2022-11-25T07:14:17;4.40;99.90
8463;DHT22;4268;52.506;13.462;2022-11-25T07:16:44;4.40;99.90
8463;DHT22;4268;52.506;13.462;2022-11-25T07:19:12;4.40;99.90
8463;DHT22;4268;52.506;13.462;2022-11-25T07:21:37;4.40;99.90
8463;DHT22;4268;52.506;13.462;2022-11-25T07:24:05;4.40;99.90
8463;DHT22;4268;52.506;13.462;2022-11-25T07:26:33;4.40;99.90
8463;DHT22;4268;52.506;13.462;2022-11-25T07:29:01;4.40;99.90
8463;DHT22;4268;52.506;13.462;2022-11-25T07:31:30;3.40;99.90
8463;DHT22;4268;52.506;13.462;2022-11-25T07:34:01;4.40;99.90
8463;DHT22;4268;52.506;13.462;2022-11-25T07:36:27;4.40;99.90
8463;DHT22;4268;52.506;13.462;2022-11-25T07:38:53;4.40;99.90
8463;DHT22;4268;52.506;13.462;2022-11-25T07:41:21;4.40;99.90
8463;DHT22;4268;52.506;13.462;2022-11-25T07:43:49;4.50;99.90
8463;DHT22;4268;52.506;13.462;2022-11-25T07:46:18;4.40;99.90
8463;DHT22;4268;52.506;13.462;2022-11-25T07:48:44;4.30;99.90
8463;DHT22;4268;52.506;13.462;2022-11-25T07:51:37;4.50;99.90
8463;DHT22;4268;52.506;13.462;2022-11-25T07:54:06;4.50;99.90
8463;DHT22;4268;52.506;13.462;2022-11-25T07:56:34;4.50;99.90
8463;DHT22;4268;52.506;13.462;2022-11-25T07:59:00;4.40;99.90
8463;DHT22;4268;52.506;13.462;2022-11-25T08:01:25;4.50;99.90
8463;DHT22;4268;52.506;13.462;2022-11-25T08:03:51;4.40;99.90
8463;DHT22;4268;52.506;13.462;2022-11-25T08:06:20;4.40;99.90
8463;DHT22;4268;52.506;13.462;2022-11-25T08:08:46;4.40;99.90
8463;DHT22;4268;52.506;13.462;2022-11-25T08:11:15;4.40;99.90
8463;DHT22;4268;52.506;13.462;2022-11-25T08:13:41;4.40;99.90
8463;DHT22;4268;52.506;13.462;2022-11-25T08:16:09;4.40;99.90
8463;DHT22;4268;52.506;13.462;2022-11-25T08:18:35;4.40;99.90
8463;DHT22;4268;52.506;13.462;2022-11-25T08:21:02;4.40;99.90
8463;DHT22;4268;52.506;13.462;2022-11-25T08:23:31;4.50;99.90
8463;DHT22;4268;52.506;13.462;2022-11-25T08:26:03;4.50;99.90
8463;DHT22;4268;52.506;13.462;2022-11-25T08:28:28;4.50;99.90
8463;DHT22;4268;52.506;13.462;2022-11-25T08:31:04;4.50;99.90
8463;DHT22;4268;52.506;13.462;2022-11-25T08:33:30;4.50;99.90
8463;DHT22;4268;52.506;13.462;2022-11-25T08:35:56;4.50;99.90
8463;DHT22;4268;52.506;13.462;2022-11-25T08:38:22;4.60;99.90
8463;DHT22;4268;52.506;13.462;2022-11-25T08:40:49;4.70;99.90
8463;DHT22;4268;52.506;13.462;2022-11-25T08:43:14;4.60;99.90
8463;DHT22;4268;52.506;13.462;2022-11-25T08:45:40;4.60;99.90
8463;DHT22;4268;52.506;13.462;2022-11-25T08:48:06;4.70;99.90
8463;DHT22;4268;52.506;13.462;2022-11-25T08:50:32;4.70;99.90
8463;DHT22;4268;52.506;13.462;2022-11-25T08:52:57;4.80;99.90
8463;DHT22;4268;52.506;13.462;2022-11-25T08:55:24;4.80;99.90
8463;DHT22;4268;52.506;13.462;2022-11-25T08:57:52;5.40;99.90
8463;DHT22;4268;52.506;13.462;2022-11-25T09:00:19;4.90;99.90
8463;DHT22;4268;52.506;13.462;2022-11-25T09:02:44;5.00;99.90
8463;DHT22;4268;52.506;13.462;2022-11-25T09:05:13;4.90;99.90
8463;DHT22;4268;52.506;13.462;2022-11-25T09:07:39;4.90;99.90
8463;DHT22;4268;52.506;13.462;2022-11-25T09:10:06;4.90;99.90
8463;DHT22;4268;52.506;13.462;2022-11-25T09:12:32;4.90;99.90
8463;DHT22;4268;52.506;13.462;2022-11-25T09:14:58;5.00;99.90
8463;DHT22;4268;52.506;13.462;2022-11-25T09:17:23;5.00;99.90
8463;DHT22;4268;52.506;13.462;2022-11-25T09:19:49;5.10;99.90
8463;DHT22;4268;52.506;13.462;2022-11-25T09:22:14;5.10;99.90
8463;DHT22;4268;52.506;13.462;2022-11-25T09:24:40;5.10;99.90
8463;DHT22;4268;52.506;13.462;2022-11-25T09:27:07;5.10;99.90
8463;DHT22;4268;52.506;13.462;2022-11-25T09:29:33;5.00;99.90
8463;DHT22;4268;52.506;13.462;2022-11-25T09:31:58;5.10;99.90
8463;DHT22;4268;52.506;13.462;2022-11-25T09:34:24;5.00;99.90
8463;DHT22;4268;52.506;13.462;2022-11-25T09:36:49;5.10;99.90
8463;DHT22;4268;52.506;13.462;2022-11-25T09:39:17;5.10;99.90
8463;DHT22;4268;52.506;13.462;2022-11-25T09:45:10;5.20;99.90
8463;DHT22;4268;52.506;13.462;2022-11-25T09:48:19;5.30;99.90
8463;DHT22;4268;52.506;13.462;2022-11-25T09:51:14;5.30;99.90
8463;DHT22;4268;52.506;13.462;2022-11-25T09:56:32;5.50;99.90
8463;DHT22;4268;52.506;13.462;2022-11-25T09:59:30;5.60;99.90
8463;DHT22;4268;52.506;13.462;2022-11-25T10:02:02;5.70;99.90
8463;DHT22;4268;52.506;13.462;2022-11-25T10:04:42;5.80;99.90
8463;DHT22;4268;52.506;13.462;2022-11-25T10:07:17;5.80;99.90
8463;DHT22;4268;52.506;13.462;2022-11-25T10:09:45;5.80;99.90
8463;DHT22;4268;52.506;13.462;2022-11-25T10:12:24;5.80;99.90
8463;DHT22;4268;52.506;13.462;2022-11-25T10:15:00;5.80;99.90
8463;DHT22;4268;52.506;13.462;2022-11-25T10:20:04;5.80;99.90
8463;DHT22;4268;52.506;13.462;2022-11-25T10:22:36;5.50;99.90
8463;DHT22;4268;52.506;13.462;2022-11-25T10:30:47;5.90;99.90
8463;DHT22;4268;52.506;13.462;2022-11-25T10:33:20;5.80;99.90
8463;DHT22;4268;52.506;13.462;2022-11-25T10:35:50;5.90;99.90
8463;DHT22;4268;52.506;13.462;2022-11-25T10:40:54;5.80;99.90
8463;DHT22;4268;52.506;13.462;2022-11-25T10:43:21;5.80;99.90
8463;DHT22;4268;52.506;13.462;2022-11-25T10:46:04;5.90;99.90
8463;DHT22;4268;52.506;13.462;2022-11-25T10:49:00;5.90;99.90
8463;DHT22;4268;52.506;13.462;2022-11-25T10:54:29;6.00;99.90
8463;DHT22;4268;52.506;13.462;2022-11-25T10:57:00;6.10;99.90
8463;DHT22;4268;52.506;13.462;2022-11-25T10:59:31;6.20;99.90
8463;DHT22;4268;52.506;13.462;2022-11-25T11:07:30;6.40;99.90
8463;DHT22;4268;52.506;13.462;2022-11-25T11:21:05;6.30;99.90
8463;DHT22;4268;52.506;13.462;2022-11-25T11:23:53;6.30;99.90
8463;DHT22;4268;52.506;13.462;2022-11-25T11:26:29;6.30;99.90
8463;DHT22;4268;52.506;13.462;2022-11-25T11:29:04;6.40;99.90
8463;DHT22;4268;52.506;13.462;2022-11-25T11:31:36;6.50;99.90
8463;DHT22;4268;52.506;13.462;2022-11-25T11:37:27;6.40;99.90
8463;DHT22;4268;52.506;13.462;2022-11-25T11:40:29;6.40;99.90
8463;DHT22;4268;52.506;13.462;2022-11-25T11:45:58;6.40;99.90
8463;DHT22;4268;52.506;13.462;2022-11-25T11:48:38;6.40;99.90
8463;DHT22;4268;52.506;13.462;2022-11-25T11:51:12;6.50;99.90
8463;DHT22;4268;52.506;13.462;2022-11-25T11:56:21;6.50;99.90
8463;DHT22;4268;52.506;13.462;2022-11-25T11:59:28;6.40;99.90
8463;DHT22;4268;52.506;13.462;2022-11-25T12:04:51;6.40;99.90
8463;DHT22;4268;52.506;13.462;2022-11-25T12:12:49;6.50;99.90
8463;DHT22;4268;52.506;13.462;2022-11-25T12:15:31;6.40;99.90
8463;DHT22;4268;52.506;13.462;2022-11-25T12:18:11;6.30;99.90
8463;DHT22;4268;52.506;13.462;2022-11-25T12:20:50;6.50;99.90
8463;DHT22;4268;52.506;13.462;2022-11-25T12:26:08;6.60;99.90
8463;DHT22;4268;52.506;13.462;2022-11-25T12:28:45;6.50;99.90
8463;DHT22;4268;52.506;13.462;2022-11-25T12:31:19;6.40;99.90
8463;DHT22;4268;52.506;13.462;2022-11-25T12:34:04;6.40;99.90
8463;DHT22;4268;52.506;13.462;2022-11-25T12:36:38;6.30;99.90
8463;DHT22;4268;52.506;13.462;2022-11-25T12:39:27;6.30;99.90
8463;DHT22;4268;52.506;13.462;2022-11-25T12:42:00;6.30;99.90
8463;DHT22;4268;52.506;13.462;2022-11-25T12:45:20;6.20;99.90
8463;DHT22;4268;52.506;13.462;2022-11-25T12:47:27;6.10;99.90
8463;DHT22;4268;52.506;13.462;2022-11-25T12:49:54;6.10;99.90
8463;DHT22;4268;52.506;13.462;2022-11-25T12:52:42;6.10;99.90
8463;DHT22;4268;52.506;13.462;2022-11-25T12:55:21;6.10;99.90
8463;DHT22;4268;52.506;13.462;2022-11-25T12:58:20;6.10;99.90
8463;DHT22;4268;52.506;13.462;2022-11-25T13:01:34;6.10;99.90
8463;DHT22;4268;52.506;13.462;2022-11-25T13:04:39;6.10;99.90
8463;DHT22;4268;52.506;13.462;2022-11-25T13:07:25;6.10;99.90
8463;DHT22;4268;52.506;13.462;2022-11-25T13:10:16;6.10;99.90
8463;DHT22;4268;52.506;13.462;2022-11-25T13:15:41;6.20;99.90
8463;DHT22;4268;52.506;13.462;2022-11-25T13:18:14;6.20;99.90
8463;DHT22;4268;52.506;13.462;2022-11-25T13:20:53;6.20;99.90
8463;DHT22;4268;52.506;13.462;2022-11-25T13:23:25;6.20;99.90
8463;DHT22;4268;52.506;13.462;2022-11-25T13:25:53;6.20;99.90
8463;DHT22;4268;52.506;13.462;2022-11-25T13:28:38;6.20;99.90
8463;DHT22;4268;52.506;13.462;2022-11-25T13:36:23;6.20;99.90
8463;DHT22;4268;52.506;13.462;2022-11-25T13:46:38;6.20;99.90
8463;DHT22;4268;52.506;13.462;2022-11-25T13:49:19;6.20;99.90
8463;DHT22;4268;52.506;13.462;2022-11-25T13:51:51;6.20;99.90
8463;DHT22;4268;52.506;13.462;2022-11-25T13:54:20;6.20;99.90
8463;DHT22;4268;52.506;13.462;2022-11-25T13:57:27;6.20;99.90
8463;DHT22;4268;52.506;13.462;2022-11-25T13:59:57;6.20;99.90
8463;DHT22;4268;52.506;13.462;2022-11-25T14:07:44;6.30;99.90
8463;DHT22;4268;52.506;13.462;2022-11-25T14:15:43;5.90;99.90
8463;DHT22;4268;52.506;13.462;2022-11-25T14:18:26;6.30;99.90
8463;DHT22;4268;52.506;13.462;2022-11-25T14:20:57;6.30;99.90
8463;DHT22;4268;52.506;13.462;2022-11-25T14:26:31;6.30;99.90
8463;DHT22;4268;52.506;13.462;2022-11-25T14:29:02;6.30;99.90
8463;DHT22;4268;52.506;13.462;2022-11-25T14:31:35;6.30;99.90
8463;DHT22;4268;52.506;13.462;2022-11-25T14:36:42;6.20;99.90
8463;DHT22;4268;52.506;13.462;2022-11-25T14:39:33;6.30;99.90
8463;DHT22;4268;52.506;13.462;2022-11-25T14:42:11;6.30;99.90
8463;DHT22;4268;52.506;13.462;2022-11-25T14:44:49;6.20;99.90
8463;DHT22;4268;52.506;13.462;2022-11-25T14:47:23;6.20;99.90
8463;DHT22;4268;52.506;13.462;2022-11-25T14:49:54;6.20;99.90
8463;DHT22;4268;52.506;13.462;2022-11-25T14:52:30;6.10;99.90
8463;DHT22;4268;52.506;13.462;2022-11-25T14:54:57;6.10;99.90
8463;DHT22;4268;52.506;13.462;2022-11-25T14:57:25;6.10;99.90
8463;DHT22;4268;52.506;13.462;2022-11-25T14:59:53;6.10;99.90
8463;DHT22;4268;52.506;13.462;2022-11-25T15:02:28;6.00;99.90
8463;DHT22;4268;52.506;13.462;2022-11-25T15:05:16;6.00;99.90
8463;DHT22;4268;52.506;13.462;2022-11-25T15:07:52;6.00;99.90
8463;DHT22;4268;52.506;13.462;2022-11-25T15:10:33;6.00;99.90
8463;DHT22;4268;52.506;13.462;2022-11-25T15:13:08;6.00;99.90
8463;DHT22;4268;52.506;13.462;2022-11-25T15:15:36;6.00;99.90
8463;DHT22;4268;52.506;13.462;2022-11-25T15:18:05;6.10;99.90
8463;DHT22;4268;52.506;13.462;2022-11-25T15:20:31;6.00;99.90
8463;DHT22;4268;52.506;13.462;2022-11-25T15:22:59;6.00;99.90
8463;DHT22;4268;52.506;13.462;2022-11-25T15:25:27;6.10;99.90
8463;DHT22;4268;52.506;13.462;2022-11-25T15:27:53;6.10;99.90
8463;DHT22;4268;52.506;13.462;2022-11-25T15:30:20;6.10;99.90
8463;DHT22;4268;52.506;13.462;2022-11-25T15:32:46;6.10;99.90
8463;DHT22;4268;52.506;13.462;2022-11-25T15:35:20;6.10;99.90
8463;DHT22;4268;52.506;13.462;2022-11-25T15:37:46;6.10;99.90
8463;DHT22;4268;52.506;13.462;2022-11-25T15:40:34;6.10;99.90
8463;DHT22;4268;52.506;13.462;2022-11-25T15:43:37;6.10;99.90
8463;DHT22;4268;52.506;13.462;2022-11-25T15:46:04;6.10;99.90
8463;DHT22;4268;52.506;13.462;2022-11-25T15:48:37;6.10;99.90
8463;DHT22;4268;52.506;13.462;2022-11-25T15:53:44;6.10;99.90
8463;DHT22;4268;52.506;13.462;2022-11-25T15:56:14;6.10;99.90
8463;DHT22;4268;52.506;13.462;2022-11-25T15:58:43;6.10;99.90
8463;DHT22;4268;52.506;13.462;2022-11-25T16:03:42;6.10;99.90
8463;DHT22;4268;52.506;13.462;2022-11-25T16:06:22;6.10;99.90
8463;DHT22;4268;52.506;13.462;2022-11-25T16:08:53;6.10;99.90
8463;DHT22;4268;52.506;13.462;2022-11-25T16:11:21;6.10;99.90
8463;DHT22;4268;52.506;13.462;2022-11-25T16:13:49;6.10;99.90
8463;DHT22;4268;52.506;13.462;2022-11-25T16:19:20;6.10;99.90
8463;DHT22;4268;52.506;13.462;2022-11-25T16:22:00;6.10;99.90
8463;DHT22;4268;52.506;13.462;2022-11-25T16:24:39;6.10;99.90
8463;DHT22;4268;52.506;13.462;2022-11-25T16:27:24;6.00;99.90
8463;DHT22;4268;52.506;13.462;2022-11-25T16:29:54;6.00;99.90
8463;DHT22;4268;52.506;13.462;2022-11-25T16:32:22;6.00;99.90
8463;DHT22;4268;52.506;13.462;2022-11-25T16:34:48;6.00;99.90
8463;DHT22;4268;52.506;13.462;2022-11-25T16:37:14;6.10;99.90
8463;DHT22;4268;52.506;13.462;2022-11-25T16:39:41;6.10;99.90
8463;DHT22;4268;52.506;13.462;2022-11-25T16:42:15;6.10;99.90
8463;DHT22;4268;52.506;13.462;2022-11-25T16:44:45;6.10;99.90
8463;DHT22;4268;52.506;13.462;2022-11-25T16:47:12;6.10;99.90
8463;DHT22;4268;52.506;13.462;2022-11-25T16:49:37;6.10;99.90
8463;DHT22;4268;52.506;13.462;2022-11-25T16:52:03;6.10;99.90
8463;DHT22;4268;52.506;13.462;2022-11-25T16:54:29;6.00;99.90
8463;DHT22;4268;52.506;13.462;2022-11-25T16:56:55;6.00;99.90
8463;DHT22;4268;52.506;13.462;2022-11-25T16:59:39;6.00;99.90
8463;DHT22;4268;52.506;13.462;2022-11-25T17:02:16;6.00;99.90
8463;DHT22;4268;52.506;13.462;2022-11-25T17:04:43;6.00;99.90
8463;DHT22;4268;52.506;13.462;2022-11-25T17:07:14;6.00;99.90
8463;DHT22;4268;52.506;13.462;2022-11-25T17:09:40;6.00;99.90
8463;DHT22;4268;52.506;13.462;2022-11-25T17:12:27;6.00;99.90
8463;DHT22;4268;52.506;13.462;2022-11-25T17:14:53;6.10;99.90
8463;DHT22;4268;52.506;13.462;2022-11-25T17:17:23;6.10;99.90
8463;DHT22;4268;52.506;13.462;2022-11-25T17:19:49;6.10;99.90
8463;DHT22;4268;52.506;13.462;2022-11-25T17:22:20;6.10;99.90
8463;DHT22;4268;52.506;13.462;2022-11-25T17:24:46;6.10;99.90
8463;DHT22;4268;52.506;13.462;2022-11-25T17:27:26;6.10;99.90
8463;DHT22;4268;52.506;13.462;2022-11-25T17:29:53;6.10;99.90
8463;DHT22;4268;52.506;13.462;2022-11-25T17:32:19;6.10;99.90
8463;DHT22;4268;52.506;13.462;2022-11-25T17:34:45;6.10;99.90
8463;DHT22;4268;52.506;13.462;2022-11-25T17:37:16;6.10;99.90
8463;DHT22;4268;52.506;13.462;2022-11-25T17:39:42;6.10;99.90
8463;DHT22;4268;52.506;13.462;2022-11-25T17:42:13;6.10;99.90
8463;DHT22;4268;52.506;13.462;2022-11-25T17:44:40;6.10;99.90
8463;DHT22;4268;52.506;13.462;2022-11-25T17:47:11;6.10;99.90
8463;DHT22;4268;52.506;13.462;2022-11-25T17:49:36;6.10;99.90
8463;DHT22;4268;52.506;13.462;2022-11-25T17:52:02;6.10;99.90
8463;DHT22;4268;52.506;13.462;2022-11-25T17:54:28;6.10;99.90
8463;DHT22;4268;52.506;13.462;2022-11-25T17:56:53;6.10;99.90